sensor_id;sensor_type;location;lat;lon;timestamp;P1;durP1;ratioP1;P2;durP2;ratioP2
77625;SDS011;66794;43.764;10.436;2023-06-10T00:02:04;24.65;;;12.40;;
77625;SDS011;66794;43.764;10.436;2023-06-10T00:04:29;20.00;;;12.43;;
77625;SDS011;66794;43.764;10.436;2023-06-10T00:06:55;21.38;;;13.13;;
77625;SDS011;66794;43.764;10.436;2023-06-10T00:09:20;20.73;;;13.10;;
77625;SDS011;66794;43.764;10.436;2023-06-10T00:11:46;20.80;;;13.45;;
77625;SDS011;66794;43.764;10.436;2023-06-10T00:14:12;24.08;;;13.90;;
77625;SDS011;66794;43.764;10.436;2023-06-10T00:16:38;21.35;;;14.50;;
77625;SDS011;66794;43.764;10.436;2023-06-10T00:19:04;20.15;;;14.07;;
77625;SDS011;66794;43.764;10.436;2023-06-10T00:21:30;24.35;;;13.75;;
77625;SDS011;66794;43.764;10.436;2023-06-10T00:24:08;20.35;;;14.20;;
77625;SDS011;66794;43.764;10.436;2023-06-10T00:26:40;26.55;;;14.68;;
77625;SDS011;66794;43.764;10.436;2023-06-10T00:29:06;21.55;;;13.98;;
77625;SDS011;66794;43.764;10.436;2023-06-10T00:31:36;23.38;;;14.32;;
77625;SDS011;66794;43.764;10.436;2023-06-10T00:34:02;22.15;;;14.15;;
77625;SDS011;66794;43.764;10.436;2023-06-10T00:36:28;23.55;;;15.20;;
77625;SDS011;66794;43.764;10.436;2023-06-10T00:38:53;24.00;;;15.27;;
77625;SDS011;66794;43.764;10.436;2023-06-10T00:41:19;20.38;;;11.60;;
77625;SDS011;66794;43.764;10.436;2023-06-10T00:43:45;16.58;;;10.27;;
77625;SDS011;66794;43.764;10.436;2023-06-10T00:46:11;17.10;;;9.20;;
77625;SDS011;66794;43.764;10.436;2023-06-10T00:48:37;17.20;;;9.73;;
77625;SDS011;66794;43.764;10.436;2023-06-10T00:51:04;19.10;;;10.35;;
77625;SDS011;66794;43.764;10.436;2023-06-10T00:53:30;14.55;;;10.10;;
77625;SDS011;66794;43.764;10.436;2023-06-10T00:55:57;16.23;;;9.25;;
77625;SDS011;66794;43.764;10.436;2023-06-10T00:58:22;16.45;;;9.70;;
77625;SDS011;66794;43.764;10.436;2023-06-10T01:00:49;16.10;;;10.80;;
77625;SDS011;66794;43.764;10.436;2023-06-10T01:03:15;18.17;;;10.43;;
77625;SDS011;66794;43.764;10.436;2023-06-10T01:05:42;19.58;;;10.38;;
77625;SDS011;66794;43.764;10.436;2023-06-10T01:10:47;21.17;;;11.73;;
77625;SDS011;66794;43.764;10.436;2023-06-10T01:13:20;21.42;;;12.70;;
77625;SDS011;66794;43.764;10.436;2023-06-10T01:15:54;19.80;;;13.07;;
77625;SDS011;66794;43.764;10.436;2023-06-10T01:18:22;20.05;;;13.40;;
77625;SDS011;66794;43.764;10.436;2023-06-10T01:20:48;16.42;;;11.95;;
77625;SDS011;66794;43.764;10.436;2023-06-10T01:23:14;17.58;;;10.85;;
77625;SDS011;66794;43.764;10.436;2023-06-10T01:26:00;17.48;;;11.70;;
77625;SDS011;66794;43.764;10.436;2023-06-10T01:28:38;18.02;;;12.23;;
77625;SDS011;66794;43.764;10.436;2023-06-10T01:34:16;17.98;;;12.40;;
77625;SDS011;66794;43.764;10.436;2023-06-10T01:36:44;21.38;;;12.75;;
77625;SDS011;66794;43.764;10.436;2023-06-10T01:39:12;22.15;;;12.70;;
77625;SDS011;66794;43.764;10.436;2023-06-10T01:41:39;21.58;;;12.23;;
77625;SDS011;66794;43.764;10.436;2023-06-10T01:44:05;22.75;;;12.43;;
77625;SDS011;66794;43.764;10.436;2023-06-10T01:46:31;25.83;;;12.32;;
77625;SDS011;66794;43.764;10.436;2023-06-10T01:48:56;24.20;;;12.93;;
77625;SDS011;66794;43.764;10.436;2023-06-10T01:51:22;22.33;;;13.57;;
77625;SDS011;66794;43.764;10.436;2023-06-10T01:53:47;23.25;;;12.10;;
77625;SDS011;66794;43.764;10.436;2023-06-10T01:56:13;24.40;;;13.13;;
77625;SDS011;66794;43.764;10.436;2023-06-10T01:58:48;22.33;;;12.27;;
77625;SDS011;66794;43.764;10.436;2023-06-10T02:01:13;20.60;;;12.93;;
77625;SDS011;66794;43.764;10.436;2023-06-10T02:03:39;17.98;;;11.63;;
77625;SDS011;66794;43.764;10.436;2023-06-10T02:06:05;21.98;;;11.73;;
77625;SDS011;66794;43.764;10.436;2023-06-10T02:08:30;20.08;;;12.05;;
77625;SDS011;66794;43.764;10.436;2023-06-10T02:10:56;16.88;;;12.30;;
77625;SDS011;66794;43.764;10.436;2023-06-10T02:13:21;19.35;;;12.10;;
77625;SDS011;66794;43.764;10.436;2023-06-10T02:15:46;15.13;;;12.65;;
77625;SDS011;66794;43.764;10.436;2023-06-10T02:18:12;15.98;;;12.35;;
77625;SDS011;66794;43.764;10.436;2023-06-10T02:20:38;18.63;;;13.30;;
77625;SDS011;66794;43.764;10.436;2023-06-10T02:23:03;16.52;;;12.85;;
77625;SDS011;66794;43.764;10.436;2023-06-10T02:25:29;24.02;;;11.95;;
77625;SDS011;66794;43.764;10.436;2023-06-10T02:27:54;17.20;;;11.50;;
77625;SDS011;66794;43.764;10.436;2023-06-10T02:30:20;17.27;;;11.02;;
77625;SDS011;66794;43.764;10.436;2023-06-10T02:32:46;18.77;;;11.40;;
77625;SDS011;66794;43.764;10.436;2023-06-10T02:35:13;16.25;;;11.13;;
77625;SDS011;66794;43.764;10.436;2023-06-10T02:37:39;18.55;;;11.40;;
77625;SDS011;66794;43.764;10.436;2023-06-10T02:40:05;18.05;;;12.23;;
77625;SDS011;66794;43.764;10.436;2023-06-10T02:42:31;16.88;;;11.70;;
77625;SDS011;66794;43.764;10.436;2023-06-10T02:44:57;18.45;;;12.23;;
77625;SDS011;66794;43.764;10.436;2023-06-10T02:47:22;15.95;;;12.40;;
77625;SDS011;66794;43.764;10.436;2023-06-10T02:49:47;17.83;;;11.32;;
77625;SDS011;66794;43.764;10.436;2023-06-10T02:52:13;20.75;;;11.40;;
77625;SDS011;66794;43.764;10.436;2023-06-10T02:54:38;16.88;;;12.43;;
77625;SDS011;66794;43.764;10.436;2023-06-10T02:57:04;16.52;;;11.25;;
77625;SDS011;66794;43.764;10.436;2023-06-10T02:59:31;16.42;;;12.27;;
77625;SDS011;66794;43.764;10.436;2023-06-10T03:01:56;16.20;;;11.80;;
77625;SDS011;66794;43.764;10.436;2023-06-10T03:04:22;17.33;;;11.63;;
77625;SDS011;66794;43.764;10.436;2023-06-10T03:06:48;15.02;;;11.30;;
77625;SDS011;66794;43.764;10.436;2023-06-10T03:09:14;16.10;;;12.00;;
77625;SDS011;66794;43.764;10.436;2023-06-10T03:11:39;21.52;;;12.10;;
77625;SDS011;66794;43.764;10.436;2023-06-10T03:14:05;19.23;;;11.38;;
77625;SDS011;66794;43.764;10.436;2023-06-10T03:16:30;18.15;;;12.27;;
77625;SDS011;66794;43.764;10.436;2023-06-10T03:18:56;25.80;;;12.88;;
77625;SDS011;66794;43.764;10.436;2023-06-10T03:21:21;20.33;;;10.75;;
77625;SDS011;66794;43.764;10.436;2023-06-10T03:23:47;19.25;;;11.25;;
77625;SDS011;66794;43.764;10.436;2023-06-10T03:26:13;18.45;;;11.82;;
77625;SDS011;66794;43.764;10.436;2023-06-10T03:28:40;21.40;;;12.65;;
77625;SDS011;66794;43.764;10.436;2023-06-10T03:31:06;26.08;;;12.65;;
77625;SDS011;66794;43.764;10.436;2023-06-10T03:33:31;21.73;;;12.63;;
77625;SDS011;66794;43.764;10.436;2023-06-10T03:35:57;18.70;;;11.30;;
77625;SDS011;66794;43.764;10.436;2023-06-10T03:38:23;15.05;;;11.25;;
77625;SDS011;66794;43.764;10.436;2023-06-10T03:40:48;19.63;;;11.32;;
77625;SDS011;66794;43.764;10.436;2023-06-10T03:43:13;20.83;;;11.50;;
77625;SDS011;66794;43.764;10.436;2023-06-10T03:45:39;22.27;;;11.65;;
77625;SDS011;66794;43.764;10.436;2023-06-10T03:48:06;23.55;;;11.10;;
77625;SDS011;66794;43.764;10.436;2023-06-10T03:50:33;19.42;;;11.27;;
77625;SDS011;66794;43.764;10.436;2023-06-10T03:52:58;17.10;;;12.07;;
77625;SDS011;66794;43.764;10.436;2023-06-10T03:55:24;20.90;;;12.00;;
77625;SDS011;66794;43.764;10.436;2023-06-10T03:57:49;22.52;;;13.35;;
77625;SDS011;66794;43.764;10.436;2023-06-10T04:00:15;20.90;;;12.00;;
77625;SDS011;66794;43.764;10.436;2023-06-10T04:02:42;23.48;;;12.90;;
77625;SDS011;66794;43.764;10.436;2023-06-10T04:05:16;16.23;;;12.07;;
77625;SDS011;66794;43.764;10.436;2023-06-10T04:07:44;22.35;;;13.07;;
77625;SDS011;66794;43.764;10.436;2023-06-10T04:10:12;19.55;;;12.88;;
77625;SDS011;66794;43.764;10.436;2023-06-10T04:12:38;21.92;;;13.80;;
77625;SDS011;66794;43.764;10.436;2023-06-10T04:15:04;23.73;;;14.82;;
77625;SDS011;66794;43.764;10.436;2023-06-10T04:17:30;23.70;;;15.68;;
77625;SDS011;66794;43.764;10.436;2023-06-10T04:19:56;23.48;;;15.25;;
77625;SDS011;66794;43.764;10.436;2023-06-10T04:22:22;27.58;;;15.63;;
77625;SDS011;66794;43.764;10.436;2023-06-10T04:24:48;24.98;;;16.45;;
77625;SDS011;66794;43.764;10.436;2023-06-10T04:27:13;24.05;;;16.00;;
77625;SDS011;66794;43.764;10.436;2023-06-10T04:29:40;21.88;;;15.63;;
77625;SDS011;66794;43.764;10.436;2023-06-10T04:32:10;24.40;;;15.85;;
77625;SDS011;66794;43.764;10.436;2023-06-10T04:34:36;26.65;;;15.63;;
77625;SDS011;66794;43.764;10.436;2023-06-10T04:37:04;32.13;;;16.23;;
77625;SDS011;66794;43.764;10.436;2023-06-10T04:39:30;29.02;;;16.33;;
77625;SDS011;66794;43.764;10.436;2023-06-10T04:41:55;28.10;;;16.13;;
77625;SDS011;66794;43.764;10.436;2023-06-10T04:44:21;22.48;;;15.85;;
77625;SDS011;66794;43.764;10.436;2023-06-10T04:46:46;21.90;;;15.00;;
77625;SDS011;66794;43.764;10.436;2023-06-10T04:49:13;23.55;;;15.48;;
77625;SDS011;66794;43.764;10.436;2023-06-10T04:51:41;25.42;;;14.68;;
77625;SDS011;66794;43.764;10.436;2023-06-10T04:54:06;27.50;;;15.65;;
77625;SDS011;66794;43.764;10.436;2023-06-10T04:56:32;24.35;;;15.50;;
77625;SDS011;66794;43.764;10.436;2023-06-10T04:58:58;25.05;;;16.33;;
77625;SDS011;66794;43.764;10.436;2023-06-10T05:01:23;25.30;;;16.13;;
77625;SDS011;66794;43.764;10.436;2023-06-10T05:03:49;25.15;;;16.65;;
77625;SDS011;66794;43.764;10.436;2023-06-10T05:06:14;28.08;;;16.90;;
77625;SDS011;66794;43.764;10.436;2023-06-10T05:08:40;26.38;;;16.70;;
77625;SDS011;66794;43.764;10.436;2023-06-10T05:11:06;24.52;;;17.23;;
77625;SDS011;66794;43.764;10.436;2023-06-10T05:13:31;27.27;;;17.98;;
77625;SDS011;66794;43.764;10.436;2023-06-10T05:15:57;30.13;;;19.05;;
77625;SDS011;66794;43.764;10.436;2023-06-10T05:18:23;28.90;;;17.38;;
77625;SDS011;66794;43.764;10.436;2023-06-10T05:20:48;24.92;;;17.38;;
77625;SDS011;66794;43.764;10.436;2023-06-10T05:23:14;34.67;;;18.75;;
77625;SDS011;66794;43.764;10.436;2023-06-10T05:25:40;33.92;;;19.73;;
77625;SDS011;66794;43.764;10.436;2023-06-10T05:28:06;33.55;;;19.48;;
77625;SDS011;66794;43.764;10.436;2023-06-10T05:30:35;30.02;;;16.38;;
77625;SDS011;66794;43.764;10.436;2023-06-10T05:33:01;26.48;;;15.55;;
77625;SDS011;66794;43.764;10.436;2023-06-10T05:35:26;27.25;;;15.25;;
77625;SDS011;66794;43.764;10.436;2023-06-10T05:37:52;31.10;;;17.70;;
77625;SDS011;66794;43.764;10.436;2023-06-10T05:40:17;31.30;;;17.48;;
77625;SDS011;66794;43.764;10.436;2023-06-10T05:42:43;28.13;;;18.25;;
77625;SDS011;66794;43.764;10.436;2023-06-10T05:45:08;26.25;;;16.88;;
77625;SDS011;66794;43.764;10.436;2023-06-10T05:47:34;28.10;;;16.00;;
77625;SDS011;66794;43.764;10.436;2023-06-10T05:50:00;19.52;;;10.98;;
77625;SDS011;66794;43.764;10.436;2023-06-10T05:52:25;20.00;;;8.80;;
77625;SDS011;66794;43.764;10.436;2023-06-10T05:54:51;19.73;;;9.82;;
77625;SDS011;66794;43.764;10.436;2023-06-10T05:57:16;19.75;;;10.98;;
77625;SDS011;66794;43.764;10.436;2023-06-10T05:59:42;12.23;;;6.68;;
77625;SDS011;66794;43.764;10.436;2023-06-10T06:02:07;14.60;;;7.25;;
77625;SDS011;66794;43.764;10.436;2023-06-10T06:04:34;12.93;;;7.45;;
77625;SDS011;66794;43.764;10.436;2023-06-10T06:06:59;12.98;;;7.25;;
77625;SDS011;66794;43.764;10.436;2023-06-10T06:09:25;13.07;;;7.40;;
77625;SDS011;66794;43.764;10.436;2023-06-10T06:11:50;13.27;;;7.20;;
77625;SDS011;66794;43.764;10.436;2023-06-10T06:14:16;12.05;;;6.80;;
77625;SDS011;66794;43.764;10.436;2023-06-10T06:16:41;13.30;;;7.22;;
77625;SDS011;66794;43.764;10.436;2023-06-10T06:19:07;11.77;;;7.25;;
77625;SDS011;66794;43.764;10.436;2023-06-10T06:21:34;15.48;;;7.72;;
77625;SDS011;66794;43.764;10.436;2023-06-10T06:24:00;14.95;;;8.05;;
77625;SDS011;66794;43.764;10.436;2023-06-10T06:26:25;14.23;;;7.65;;
77625;SDS011;66794;43.764;10.436;2023-06-10T06:28:52;14.00;;;7.82;;
77625;SDS011;66794;43.764;10.436;2023-06-10T06:31:17;14.73;;;8.07;;
77625;SDS011;66794;43.764;10.436;2023-06-10T06:33:42;16.95;;;9.18;;
77625;SDS011;66794;43.764;10.436;2023-06-10T06:36:08;15.35;;;8.68;;
77625;SDS011;66794;43.764;10.436;2023-06-10T06:38:33;19.45;;;10.60;;
77625;SDS011;66794;43.764;10.436;2023-06-10T06:40:59;15.20;;;9.23;;
77625;SDS011;66794;43.764;10.436;2023-06-10T06:43:28;14.35;;;7.78;;
77625;SDS011;66794;43.764;10.436;2023-06-10T06:45:56;12.88;;;7.30;;
77625;SDS011;66794;43.764;10.436;2023-06-10T06:48:22;12.73;;;6.93;;
77625;SDS011;66794;43.764;10.436;2023-06-10T06:50:48;14.50;;;7.00;;
77625;SDS011;66794;43.764;10.436;2023-06-10T06:53:13;13.15;;;6.75;;
77625;SDS011;66794;43.764;10.436;2023-06-10T06:55:39;13.63;;;8.23;;
77625;SDS011;66794;43.764;10.436;2023-06-10T06:58:04;13.60;;;7.93;;
77625;SDS011;66794;43.764;10.436;2023-06-10T07:00:30;12.35;;;8.40;;
77625;SDS011;66794;43.764;10.436;2023-06-10T07:02:56;14.32;;;8.50;;
77625;SDS011;66794;43.764;10.436;2023-06-10T07:05:22;11.35;;;8.50;;
77625;SDS011;66794;43.764;10.436;2023-06-10T07:07:48;20.83;;;9.38;;
77625;SDS011;66794;43.764;10.436;2023-06-10T07:10:19;14.45;;;9.45;;
77625;SDS011;66794;43.764;10.436;2023-06-10T07:12:47;16.23;;;9.20;;
77625;SDS011;66794;43.764;10.436;2023-06-10T07:15:13;14.43;;;8.73;;
77625;SDS011;66794;43.764;10.436;2023-06-10T07:17:38;13.80;;;8.35;;
77625;SDS011;66794;43.764;10.436;2023-06-10T07:20:04;15.02;;;8.02;;
77625;SDS011;66794;43.764;10.436;2023-06-10T07:22:30;10.38;;;7.43;;
77625;SDS011;66794;43.764;10.436;2023-06-10T07:24:55;11.80;;;7.50;;
77625;SDS011;66794;43.764;10.436;2023-06-10T07:27:21;11.77;;;7.05;;
77625;SDS011;66794;43.764;10.436;2023-06-10T07:29:46;8.43;;;6.75;;
77625;SDS011;66794;43.764;10.436;2023-06-10T07:32:12;11.93;;;6.90;;
77625;SDS011;66794;43.764;10.436;2023-06-10T07:34:37;10.23;;;6.72;;
77625;SDS011;66794;43.764;10.436;2023-06-10T07:37:03;10.77;;;6.70;;
77625;SDS011;66794;43.764;10.436;2023-06-10T07:39:28;9.95;;;6.10;;
77625;SDS011;66794;43.764;10.436;2023-06-10T07:41:54;10.73;;;5.32;;
77625;SDS011;66794;43.764;10.436;2023-06-10T07:44:21;10.85;;;6.78;;
77625;SDS011;66794;43.764;10.436;2023-06-10T07:46:47;10.60;;;5.72;;
77625;SDS011;66794;43.764;10.436;2023-06-10T07:49:13;10.43;;;6.13;;
77625;SDS011;66794;43.764;10.436;2023-06-10T07:51:38;51.60;;;9.88;;
77625;SDS011;66794;43.764;10.436;2023-06-10T07:54:03;9.68;;;5.60;;
77625;SDS011;66794;43.764;10.436;2023-06-10T07:56:29;9.23;;;5.80;;
77625;SDS011;66794;43.764;10.436;2023-06-10T07:58:54;10.13;;;6.15;;
77625;SDS011;66794;43.764;10.436;2023-06-10T08:01:20;11.23;;;5.63;;
77625;SDS011;66794;43.764;10.436;2023-06-10T08:03:45;10.10;;;6.22;;
77625;SDS011;66794;43.764;10.436;2023-06-10T08:06:11;13.52;;;8.32;;
77625;SDS011;66794;43.764;10.436;2023-06-10T08:08:37;14.52;;;8.68;;
77625;SDS011;66794;43.764;10.436;2023-06-10T08:11:07;16.63;;;10.70;;
77625;SDS011;66794;43.764;10.436;2023-06-10T08:16:35;19.20;;;11.63;;
77625;SDS011;66794;43.764;10.436;2023-06-10T08:19:21;18.13;;;10.90;;
77625;SDS011;66794;43.764;10.436;2023-06-10T08:22:07;16.88;;;10.95;;
77625;SDS011;66794;43.764;10.436;2023-06-10T08:24:52;22.38;;;11.35;;
77625;SDS011;66794;43.764;10.436;2023-06-10T08:27:38;20.08;;;11.18;;
77625;SDS011;66794;43.764;10.436;2023-06-10T08:30:24;13.50;;;9.75;;
77625;SDS011;66794;43.764;10.436;2023-06-10T08:33:10;14.90;;;9.57;;
77625;SDS011;66794;43.764;10.436;2023-06-10T08:35:55;10.98;;;7.30;;
77625;SDS011;66794;43.764;10.436;2023-06-10T08:38:41;12.02;;;6.90;;
77625;SDS011;66794;43.764;10.436;2023-06-10T08:41:31;9.65;;;6.55;;
77625;SDS011;66794;43.764;10.436;2023-06-10T08:44:30;9.82;;;5.25;;
77625;SDS011;66794;43.764;10.436;2023-06-10T08:47:17;8.98;;;6.07;;
77625;SDS011;66794;43.764;10.436;2023-06-10T08:50:03;11.98;;;5.80;;
77625;SDS011;66794;43.764;10.436;2023-06-10T08:52:50;8.75;;;5.57;;
77625;SDS011;66794;43.764;10.436;2023-06-10T08:55:42;10.90;;;5.47;;
77625;SDS011;66794;43.764;10.436;2023-06-10T08:58:32;8.73;;;5.57;;
77625;SDS011;66794;43.764;10.436;2023-06-10T09:01:26;9.30;;;6.22;;
77625;SDS011;66794;43.764;10.436;2023-06-10T09:04:13;11.07;;;6.57;;
77625;SDS011;66794;43.764;10.436;2023-06-10T09:07:02;8.63;;;6.07;;
77625;SDS011;66794;43.764;10.436;2023-06-10T09:09:48;13.38;;;6.65;;
77625;SDS011;66794;43.764;10.436;2023-06-10T09:12:34;8.57;;;5.72;;
77625;SDS011;66794;43.764;10.436;2023-06-10T09:15:21;11.90;;;6.38;;
77625;SDS011;66794;43.764;10.436;2023-06-10T09:18:07;13.73;;;6.93;;
77625;SDS011;66794;43.764;10.436;2023-06-10T09:20:52;12.73;;;6.97;;
77625;SDS011;66794;43.764;10.436;2023-06-10T09:23:38;10.75;;;6.40;;
77625;SDS011;66794;43.764;10.436;2023-06-10T09:26:28;10.88;;;6.00;;
77625;SDS011;66794;43.764;10.436;2023-06-10T09:29:15;10.18;;;6.63;;
77625;SDS011;66794;43.764;10.436;2023-06-10T09:32:00;12.35;;;6.15;;
77625;SDS011;66794;43.764;10.436;2023-06-10T09:34:46;12.68;;;8.10;;
77625;SDS011;66794;43.764;10.436;2023-06-10T09:37:34;13.07;;;7.35;;
77625;SDS011;66794;43.764;10.436;2023-06-10T09:40:23;18.67;;;7.22;;
77625;SDS011;66794;43.764;10.436;2023-06-10T09:43:09;12.70;;;6.80;;
77625;SDS011;66794;43.764;10.436;2023-06-10T09:45:58;11.80;;;7.30;;
77625;SDS011;66794;43.764;10.436;2023-06-10T09:48:44;10.65;;;6.20;;
77625;SDS011;66794;43.764;10.436;2023-06-10T09:51:31;11.80;;;5.82;;
77625;SDS011;66794;43.764;10.436;2023-06-10T09:54:18;11.82;;;5.72;;
77625;SDS011;66794;43.764;10.436;2023-06-10T09:57:07;14.25;;;5.78;;
77625;SDS011;66794;43.764;10.436;2023-06-10T09:59:53;14.15;;;5.05;;
77625;SDS011;66794;43.764;10.436;2023-06-10T10:02:46;11.93;;;5.45;;
77625;SDS011;66794;43.764;10.436;2023-06-10T10:05:36;11.85;;;6.05;;
77625;SDS011;66794;43.764;10.436;2023-06-10T10:08:22;10.68;;;5.30;;
77625;SDS011;66794;43.764;10.436;2023-06-10T10:11:08;11.23;;;6.00;;
77625;SDS011;66794;43.764;10.436;2023-06-10T10:13:54;10.70;;;5.60;;
77625;SDS011;66794;43.764;10.436;2023-06-10T10:16:40;10.80;;;5.78;;
77625;SDS011;66794;43.764;10.436;2023-06-10T10:19:28;10.88;;;6.05;;
77625;SDS011;66794;43.764;10.436;2023-06-10T10:22:25;9.90;;;6.25;;
77625;SDS011;66794;43.764;10.436;2023-06-10T10:25:13;9.93;;;5.95;;
77625;SDS011;66794;43.764;10.436;2023-06-10T10:30:59;13.65;;;7.53;;
77625;SDS011;66794;43.764;10.436;2023-06-10T10:33:58;11.45;;;8.45;;
77625;SDS011;66794;43.764;10.436;2023-06-10T10:39:30;14.13;;;8.48;;
77625;SDS011;66794;43.764;10.436;2023-06-10T10:42:19;12.80;;;8.23;;
77625;SDS011;66794;43.764;10.436;2023-06-10T10:45:05;11.10;;;8.10;;
77625;SDS011;66794;43.764;10.436;2023-06-10T10:47:53;13.75;;;6.80;;
77625;SDS011;66794;43.764;10.436;2023-06-10T10:50:41;13.15;;;6.75;;
77625;SDS011;66794;43.764;10.436;2023-06-10T10:53:27;20.15;;;6.50;;
77625;SDS011;66794;43.764;10.436;2023-06-10T10:56:14;14.73;;;6.95;;
77625;SDS011;66794;43.764;10.436;2023-06-10T10:59:03;15.38;;;7.95;;
77625;SDS011;66794;43.764;10.436;2023-06-10T11:01:50;18.35;;;10.85;;
77625;SDS011;66794;43.764;10.436;2023-06-10T11:04:36;22.92;;;11.45;;
77625;SDS011;66794;43.764;10.436;2023-06-10T11:07:24;18.88;;;12.15;;
77625;SDS011;66794;43.764;10.436;2023-06-10T11:10:13;15.52;;;10.20;;
77625;SDS011;66794;43.764;10.436;2023-06-10T11:12:59;23.10;;;11.93;;
77625;SDS011;66794;43.764;10.436;2023-06-10T11:15:46;22.58;;;12.77;;
77625;SDS011;66794;43.764;10.436;2023-06-10T11:18:39;21.83;;;13.20;;
77625;SDS011;66794;43.764;10.436;2023-06-10T11:21:25;23.30;;;14.27;;
77625;SDS011;66794;43.764;10.436;2023-06-10T11:24:12;25.63;;;14.50;;
77625;SDS011;66794;43.764;10.436;2023-06-10T11:27:18;26.30;;;13.73;;
77625;SDS011;66794;43.764;10.436;2023-06-10T11:32:51;30.50;;;15.48;;
77625;SDS011;66794;43.764;10.436;2023-06-10T11:35:38;30.15;;;15.77;;
77625;SDS011;66794;43.764;10.436;2023-06-10T11:38:24;27.63;;;14.75;;
77625;SDS011;66794;43.764;10.436;2023-06-10T11:41:13;26.35;;;12.63;;
77625;SDS011;66794;43.764;10.436;2023-06-10T11:44:03;24.67;;;11.30;;
77625;SDS011;66794;43.764;10.436;2023-06-10T11:46:52;25.27;;;11.45;;
77625;SDS011;66794;43.764;10.436;2023-06-10T11:49:38;23.33;;;11.80;;
77625;SDS011;66794;43.764;10.436;2023-06-10T11:52:29;24.10;;;11.40;;
77625;SDS011;66794;43.764;10.436;2023-06-10T11:55:17;24.48;;;11.15;;
77625;SDS011;66794;43.764;10.436;2023-06-10T11:58:03;26.90;;;11.82;;
77625;SDS011;66794;43.764;10.436;2023-06-10T12:00:49;29.67;;;12.90;;
77625;SDS011;66794;43.764;10.436;2023-06-10T12:03:38;23.17;;;11.77;;
77625;SDS011;66794;43.764;10.436;2023-06-10T12:06:25;18.67;;;10.98;;
77625;SDS011;66794;43.764;10.436;2023-06-10T12:12:07;16.23;;;9.75;;
77625;SDS011;66794;43.764;10.436;2023-06-10T12:14:54;17.08;;;7.30;;
77625;SDS011;66794;43.764;10.436;2023-06-10T12:17:42;15.40;;;7.63;;
77625;SDS011;66794;43.764;10.436;2023-06-10T12:20:32;10.65;;;5.32;;
77625;SDS011;66794;43.764;10.436;2023-06-10T12:23:21;9.93;;;5.05;;
77625;SDS011;66794;43.764;10.436;2023-06-10T12:26:08;10.95;;;5.95;;
77625;SDS011;66794;43.764;10.436;2023-06-10T12:28:54;11.32;;;5.25;;
77625;SDS011;66794;43.764;10.436;2023-06-10T12:35:02;10.07;;;5.07;;
77625;SDS011;66794;43.764;10.436;2023-06-10T12:40:43;7.03;;;4.85;;
77625;SDS011;66794;43.764;10.436;2023-06-10T12:43:30;13.90;;;5.13;;
77625;SDS011;66794;43.764;10.436;2023-06-10T12:46:16;6.82;;;4.50;;
77625;SDS011;66794;43.764;10.436;2023-06-10T12:49:04;9.15;;;4.60;;
77625;SDS011;66794;43.764;10.436;2023-06-10T12:51:50;7.78;;;4.90;;
77625;SDS011;66794;43.764;10.436;2023-06-10T12:54:35;9.27;;;4.40;;
77625;SDS011;66794;43.764;10.436;2023-06-10T12:57:22;8.35;;;4.43;;
77625;SDS011;66794;43.764;10.436;2023-06-10T13:00:08;7.43;;;4.88;;
77625;SDS011;66794;43.764;10.436;2023-06-10T13:03:00;8.20;;;4.10;;
77625;SDS011;66794;43.764;10.436;2023-06-10T13:05:47;9.38;;;4.47;;
77625;SDS011;66794;43.764;10.436;2023-06-10T13:08:33;6.18;;;4.22;;
77625;SDS011;66794;43.764;10.436;2023-06-10T13:11:19;13.40;;;5.05;;
77625;SDS011;66794;43.764;10.436;2023-06-10T13:14:05;10.02;;;5.55;;
77625;SDS011;66794;43.764;10.436;2023-06-10T13:16:51;11.77;;;5.30;;
77625;SDS011;66794;43.764;10.436;2023-06-10T13:19:39;8.63;;;5.63;;
77625;SDS011;66794;43.764;10.436;2023-06-10T13:22:25;10.02;;;4.88;;
77625;SDS011;66794;43.764;10.436;2023-06-10T13:25:12;10.90;;;5.35;;
77625;SDS011;66794;43.764;10.436;2023-06-10T13:27:57;9.68;;;5.78;;
77625;SDS011;66794;43.764;10.436;2023-06-10T13:30:23;11.85;;;5.53;;
77625;SDS011;66794;43.764;10.436;2023-06-10T13:32:48;10.90;;;5.78;;
77625;SDS011;66794;43.764;10.436;2023-06-10T13:35:14;9.73;;;5.15;;
77625;SDS011;66794;43.764;10.436;2023-06-10T13:37:39;10.85;;;5.43;;
77625;SDS011;66794;43.764;10.436;2023-06-10T13:40:05;9.50;;;4.95;;
77625;SDS011;66794;43.764;10.436;2023-06-10T13:42:32;12.93;;;4.95;;
77625;SDS011;66794;43.764;10.436;2023-06-10T13:44:58;9.38;;;4.90;;
77625;SDS011;66794;43.764;10.436;2023-06-10T13:47:24;7.65;;;4.43;;
77625;SDS011;66794;43.764;10.436;2023-06-10T13:49:50;11.43;;;4.40;;
77625;SDS011;66794;43.764;10.436;2023-06-10T13:52:15;9.48;;;5.40;;
77625;SDS011;66794;43.764;10.436;2023-06-10T13:54:41;10.85;;;5.43;;
77625;SDS011;66794;43.764;10.436;2023-06-10T13:57:07;13.52;;;5.55;;
77625;SDS011;66794;43.764;10.436;2023-06-10T13:59:35;12.15;;;5.10;;
77625;SDS011;66794;43.764;10.436;2023-06-10T14:02:00;11.00;;;4.88;;
77625;SDS011;66794;43.764;10.436;2023-06-10T14:04:26;10.27;;;4.63;;
77625;SDS011;66794;43.764;10.436;2023-06-10T14:06:52;11.50;;;4.60;;
77625;SDS011;66794;43.764;10.436;2023-06-10T14:09:17;10.35;;;4.78;;
77625;SDS011;66794;43.764;10.436;2023-06-10T14:11:44;10.77;;;4.47;;
77625;SDS011;66794;43.764;10.436;2023-06-10T14:14:09;9.82;;;4.55;;
77625;SDS011;66794;43.764;10.436;2023-06-10T14:16:35;11.57;;;4.35;;
77625;SDS011;66794;43.764;10.436;2023-06-10T14:19:00;10.23;;;4.28;;
77625;SDS011;66794;43.764;10.436;2023-06-10T14:21:26;9.90;;;4.40;;
77625;SDS011;66794;43.764;10.436;2023-06-10T14:23:51;11.10;;;4.38;;
77625;SDS011;66794;43.764;10.436;2023-06-10T14:26:18;9.05;;;4.13;;
77625;SDS011;66794;43.764;10.436;2023-06-10T14:28:46;9.98;;;4.50;;
77625;SDS011;66794;43.764;10.436;2023-06-10T14:31:12;13.20;;;5.55;;
77625;SDS011;66794;43.764;10.436;2023-06-10T14:33:37;10.95;;;5.00;;
77625;SDS011;66794;43.764;10.436;2023-06-10T14:36:04;13.82;;;5.28;;
77625;SDS011;66794;43.764;10.436;2023-06-10T14:38:30;11.30;;;4.60;;
77625;SDS011;66794;43.764;10.436;2023-06-10T14:40:55;11.75;;;4.93;;
77625;SDS011;66794;43.764;10.436;2023-06-10T14:43:21;11.15;;;4.95;;
77625;SDS011;66794;43.764;10.436;2023-06-10T14:45:46;11.95;;;5.85;;
77625;SDS011;66794;43.764;10.436;2023-06-10T14:48:30;9.00;;;5.50;;
77625;SDS011;66794;43.764;10.436;2023-06-10T14:51:14;8.73;;;4.53;;
77625;SDS011;66794;43.764;10.436;2023-06-10T14:54:00;10.55;;;3.95;;
77625;SDS011;66794;43.764;10.436;2023-06-10T14:56:46;9.18;;;4.22;;
77625;SDS011;66794;43.764;10.436;2023-06-10T14:59:31;8.60;;;4.22;;
77625;SDS011;66794;43.764;10.436;2023-06-10T15:02:17;8.00;;;3.47;;
77625;SDS011;66794;43.764;10.436;2023-06-10T15:05:03;8.10;;;3.67;;
77625;SDS011;66794;43.764;10.436;2023-06-10T15:07:49;9.88;;;4.18;;
77625;SDS011;66794;43.764;10.436;2023-06-10T15:10:35;9.82;;;3.97;;
77625;SDS011;66794;43.764;10.436;2023-06-10T15:13:20;10.25;;;3.63;;
77625;SDS011;66794;43.764;10.436;2023-06-10T15:16:06;11.30;;;4.50;;
77625;SDS011;66794;43.764;10.436;2023-06-10T15:18:52;12.45;;;3.70;;